sensor_id;sensor_type;location;lat;lon;timestamp;P1;durP1;ratioP1;P2;durP2;ratioP2
22851;SDS011;11592;45.460;9.240;2024-03-06T00:01:08;2.83;;;1.25;;
22851;SDS011;11592;45.460;9.240;2024-03-06T00:03:35;2.60;;;1.10;;
22851;SDS011;11592;45.460;9.240;2024-03-06T00:06:03;2.20;;;0.98;;
22851;SDS011;11592;45.460;9.240;2024-03-06T00:08:30;2.80;;;1.05;;
22851;SDS011;11592;45.460;9.240;2024-03-06T00:10:58;2.63;;;1.00;;
22851;SDS011;11592;45.460;9.240;2024-03-06T00:13:25;3.25;;;0.77;;
22851;SDS011;11592;45.460;9.240;2024-03-06T00:15:52;2.25;;;1.08;;
22851;SDS011;11592;45.460;9.240;2024-03-06T00:18:19;2.25;;;0.95;;
22851;SDS011;11592;45.460;9.240;2024-03-06T00:20:46;5.68;;;1.00;;
22851;SDS011;11592;45.460;9.240;2024-03-06T00:23:14;2.20;;;0.90;;
22851;SDS011;11592;45.460;9.240;2024-03-06T00:25:41;1.65;;;0.88;;
22851;SDS011;11592;45.460;9.240;2024-03-06T00:28:08;2.75;;;1.10;;
22851;SDS011;11592;45.460;9.240;2024-03-06T00:30:36;3.25;;;1.00;;
22851;SDS011;11592;45.460;9.240;2024-03-06T00:33:03;2.72;;;0.93;;
22851;SDS011;11592;45.460;9.240;2024-03-06T00:35:30;2.00;;;0.73;;
22851;SDS011;11592;45.460;9.240;2024-03-06T00:37:57;2.10;;;1.00;;
22851;SDS011;11592;45.460;9.240;2024-03-06T00:40:28;2.78;;;1.10;;
22851;SDS011;11592;45.460;9.240;2024-03-06T00:42:57;2.45;;;0.95;;
22851;SDS011;11592;45.460;9.240;2024-03-06T00:45:24;3.10;;;0.98;;
22851;SDS011;11592;45.460;9.240;2024-03-06T00:47:52;3.40;;;0.95;;
22851;SDS011;11592;45.460;9.240;2024-03-06T00:50:19;4.35;;;1.10;;
22851;SDS011;11592;45.460;9.240;2024-03-06T00:52:48;2.78;;;1.08;;
22851;SDS011;11592;45.460;9.240;2024-03-06T00:55:15;2.47;;;1.02;;
22851;SDS011;11592;45.460;9.240;2024-03-06T00:57:42;2.70;;;1.08;;
22851;SDS011;11592;45.460;9.240;2024-03-06T01:00:10;2.72;;;1.17;;
22851;SDS011;11592;45.460;9.240;2024-03-06T01:02:37;2.17;;;1.03;;
22851;SDS011;11592;45.460;9.240;2024-03-06T01:05:04;1.85;;;0.88;;
22851;SDS011;11592;45.460;9.240;2024-03-06T01:07:33;3.53;;;1.20;;
22851;SDS011;11592;45.460;9.240;2024-03-06T01:10:01;2.67;;;0.88;;
22851;SDS011;11592;45.460;9.240;2024-03-06T01:12:28;2.83;;;0.98;;
22851;SDS011;11592;45.460;9.240;2024-03-06T01:14:56;3.97;;;1.00;;
22851;SDS011;11592;45.460;9.240;2024-03-06T01:17:22;2.00;;;0.90;;
22851;SDS011;11592;45.460;9.240;2024-03-06T01:19:50;1.92;;;0.93;;
22851;SDS011;11592;45.460;9.240;2024-03-06T01:22:17;2.08;;;1.00;;
22851;SDS011;11592;45.460;9.240;2024-03-06T01:24:45;3.38;;;1.02;;
22851;SDS011;11592;45.460;9.240;2024-03-06T01:29:44;2.55;;;1.20;;
22851;SDS011;11592;45.460;9.240;2024-03-06T01:32:12;2.40;;;0.85;;
22851;SDS011;11592;45.460;9.240;2024-03-06T01:34:39;2.90;;;1.00;;
22851;SDS011;11592;45.460;9.240;2024-03-06T01:37:07;2.08;;;0.90;;
22851;SDS011;11592;45.460;9.240;2024-03-06T01:39:35;1.88;;;0.93;;
22851;SDS011;11592;45.460;9.240;2024-03-06T01:42:02;2.63;;;0.90;;
22851;SDS011;11592;45.460;9.240;2024-03-06T01:44:29;1.73;;;0.80;;
22851;SDS011;11592;45.460;9.240;2024-03-06T01:46:57;1.98;;;0.95;;
22851;SDS011;11592;45.460;9.240;2024-03-06T01:49:24;1.70;;;0.80;;
22851;SDS011;11592;45.460;9.240;2024-03-06T01:52:05;2.00;;;0.90;;
22851;SDS011;11592;45.460;9.240;2024-03-06T01:54:33;3.40;;;1.35;;
22851;SDS011;11592;45.460;9.240;2024-03-06T01:57:01;3.42;;;1.40;;
22851;SDS011;11592;45.460;9.240;2024-03-06T01:59:28;3.42;;;1.33;;
22851;SDS011;11592;45.460;9.240;2024-03-06T02:02:02;3.45;;;1.50;;
22851;SDS011;11592;45.460;9.240;2024-03-06T02:04:30;3.10;;;1.60;;
22851;SDS011;11592;45.460;9.240;2024-03-06T02:06:58;3.78;;;1.58;;
22851;SDS011;11592;45.460;9.240;2024-03-06T02:09:25;6.97;;;2.00;;
22851;SDS011;11592;45.460;9.240;2024-03-06T02:11:52;5.10;;;2.15;;
22851;SDS011;11592;45.460;9.240;2024-03-06T02:14:20;3.30;;;1.60;;
22851;SDS011;11592;45.460;9.240;2024-03-06T02:16:47;3.53;;;1.70;;
22851;SDS011;11592;45.460;9.240;2024-03-06T02:19:15;4.30;;;1.75;;
22851;SDS011;11592;45.460;9.240;2024-03-06T02:21:42;3.08;;;1.40;;
22851;SDS011;11592;45.460;9.240;2024-03-06T02:24:09;4.88;;;1.67;;
22851;SDS011;11592;45.460;9.240;2024-03-06T02:26:39;3.10;;;1.30;;
22851;SDS011;11592;45.460;9.240;2024-03-06T02:29:06;4.50;;;1.50;;
22851;SDS011;11592;45.460;9.240;2024-03-06T02:31:32;5.10;;;1.42;;
22851;SDS011;11592;45.460;9.240;2024-03-06T02:34:00;3.08;;;1.50;;
22851;SDS011;11592;45.460;9.240;2024-03-06T02:36:31;3.13;;;1.50;;
22851;SDS011;11592;45.460;9.240;2024-03-06T02:38:58;3.08;;;1.45;;
22851;SDS011;11592;45.460;9.240;2024-03-06T02:41:25;3.08;;;1.60;;
22851;SDS011;11592;45.460;9.240;2024-03-06T02:43:53;3.25;;;1.63;;
22851;SDS011;11592;45.460;9.240;2024-03-06T02:46:20;6.07;;;1.83;;
22851;SDS011;11592;45.460;9.240;2024-03-06T02:48:47;3.03;;;1.40;;
22851;SDS011;11592;45.460;9.240;2024-03-06T02:51:17;3.63;;;1.92;;
22851;SDS011;11592;45.460;9.240;2024-03-06T02:53:45;3.85;;;1.73;;
22851;SDS011;11592;45.460;9.240;2024-03-06T02:56:18;3.20;;;1.73;;
22851;SDS011;11592;45.460;9.240;2024-03-06T02:58:45;3.97;;;1.73;;
22851;SDS011;11592;45.460;9.240;2024-03-06T03:01:16;3.10;;;1.60;;
22851;SDS011;11592;45.460;9.240;2024-03-06T03:03:43;2.80;;;1.60;;
22851;SDS011;11592;45.460;9.240;2024-03-06T03:06:12;4.07;;;2.05;;
22851;SDS011;11592;45.460;9.240;2024-03-06T03:08:39;6.72;;;2.10;;
22851;SDS011;11592;45.460;9.240;2024-03-06T03:11:07;3.50;;;1.65;;
22851;SDS011;11592;45.460;9.240;2024-03-06T03:13:34;4.65;;;1.67;;
22851;SDS011;11592;45.460;9.240;2024-03-06T03:16:01;4.13;;;1.80;;
22851;SDS011;11592;45.460;9.240;2024-03-06T03:18:30;3.75;;;1.95;;
22851;SDS011;11592;45.460;9.240;2024-03-06T03:20:57;3.55;;;1.88;;
22851;SDS011;11592;45.460;9.240;2024-03-06T03:23:24;4.03;;;1.65;;
22851;SDS011;11592;45.460;9.240;2024-03-06T03:25:52;2.90;;;1.60;;
22851;SDS011;11592;45.460;9.240;2024-03-06T03:28:19;3.00;;;1.65;;
22851;SDS011;11592;45.460;9.240;2024-03-06T03:30:46;3.22;;;1.67;;
22851;SDS011;11592;45.460;9.240;2024-03-06T03:33:13;2.60;;;1.50;;
22851;SDS011;11592;45.460;9.240;2024-03-06T03:35:41;3.50;;;1.73;;
22851;SDS011;11592;45.460;9.240;2024-03-06T03:38:08;3.17;;;1.55;;
22851;SDS011;11592;45.460;9.240;2024-03-06T03:40:35;3.08;;;1.58;;
22851;SDS011;11592;45.460;9.240;2024-03-06T03:43:02;5.68;;;1.80;;
22851;SDS011;11592;45.460;9.240;2024-03-06T03:45:33;3.03;;;1.70;;
22851;SDS011;11592;45.460;9.240;2024-03-06T03:48:01;3.75;;;1.70;;
22851;SDS011;11592;45.460;9.240;2024-03-06T03:50:31;2.63;;;1.40;;
22851;SDS011;11592;45.460;9.240;2024-03-06T03:52:59;4.15;;;1.73;;
22851;SDS011;11592;45.460;9.240;2024-03-06T03:55:27;3.58;;;2.20;;
22851;SDS011;11592;45.460;9.240;2024-03-06T03:57:54;5.63;;;2.65;;
22851;SDS011;11592;45.460;9.240;2024-03-06T04:00:23;5.70;;;3.75;;
22851;SDS011;11592;45.460;9.240;2024-03-06T04:02:50;6.45;;;4.18;;
22851;SDS011;11592;45.460;9.240;2024-03-06T04:05:17;6.72;;;4.97;;
22851;SDS011;11592;45.460;9.240;2024-03-06T04:07:44;7.53;;;5.13;;
22851;SDS011;11592;45.460;9.240;2024-03-06T04:10:12;8.52;;;5.57;;
22851;SDS011;11592;45.460;9.240;2024-03-06T04:12:39;9.05;;;6.28;;
22851;SDS011;11592;45.460;9.240;2024-03-06T04:15:07;9.50;;;6.65;;
22851;SDS011;11592;45.460;9.240;2024-03-06T04:17:34;11.00;;;7.03;;
22851;SDS011;11592;45.460;9.240;2024-03-06T04:20:03;10.70;;;7.00;;
22851;SDS011;11592;45.460;9.240;2024-03-06T04:22:32;11.80;;;6.97;;
22851;SDS011;11592;45.460;9.240;2024-03-06T04:24:59;9.02;;;6.40;;
22851;SDS011;11592;45.460;9.240;2024-03-06T04:27:28;9.98;;;6.88;;
22851;SDS011;11592;45.460;9.240;2024-03-06T04:29:55;9.52;;;6.72;;
22851;SDS011;11592;45.460;9.240;2024-03-06T04:32:22;9.65;;;6.72;;
22851;SDS011;11592;45.460;9.240;2024-03-06T04:34:49;9.48;;;6.72;;
22851;SDS011;11592;45.460;9.240;2024-03-06T04:37:16;8.57;;;6.28;;
22851;SDS011;11592;45.460;9.240;2024-03-06T04:39:43;12.45;;;7.32;;
22851;SDS011;11592;45.460;9.240;2024-03-06T04:42:10;12.85;;;7.45;;
22851;SDS011;11592;45.460;9.240;2024-03-06T04:44:37;14.40;;;7.38;;
22851;SDS011;11592;45.460;9.240;2024-03-06T04:47:04;10.57;;;6.55;;
22851;SDS011;11592;45.460;9.240;2024-03-06T04:49:34;10.20;;;7.20;;
22851;SDS011;11592;45.460;9.240;2024-03-06T04:52:03;10.65;;;7.68;;
22851;SDS011;11592;45.460;9.240;2024-03-06T04:54:31;11.60;;;7.40;;
22851;SDS011;11592;45.460;9.240;2024-03-06T04:56:58;11.82;;;7.72;;
22851;SDS011;11592;45.460;9.240;2024-03-06T04:59:25;11.20;;;7.90;;
22851;SDS011;11592;45.460;9.240;2024-03-06T05:01:52;12.57;;;8.48;;
22851;SDS011;11592;45.460;9.240;2024-03-06T05:04:20;15.68;;;8.10;;
22851;SDS011;11592;45.460;9.240;2024-03-06T05:07:05;12.60;;;8.77;;
22851;SDS011;11592;45.460;9.240;2024-03-06T05:09:49;12.35;;;8.73;;
22851;SDS011;11592;45.460;9.240;2024-03-06T05:12:34;12.75;;;8.90;;
22851;SDS011;11592;45.460;9.240;2024-03-06T05:15:18;12.02;;;8.25;;
22851;SDS011;11592;45.460;9.240;2024-03-06T05:18:03;11.90;;;8.15;;
22851;SDS011;11592;45.460;9.240;2024-03-06T05:20:48;10.60;;;7.55;;
22851;SDS011;11592;45.460;9.240;2024-03-06T05:23:32;12.02;;;7.63;;
22851;SDS011;11592;45.460;9.240;2024-03-06T05:26:17;10.35;;;6.95;;
22851;SDS011;11592;45.460;9.240;2024-03-06T05:29:01;10.63;;;7.07;;
22851;SDS011;11592;45.460;9.240;2024-03-06T05:31:46;9.77;;;6.35;;
22851;SDS011;11592;45.460;9.240;2024-03-06T05:34:31;10.52;;;7.18;;
22851;SDS011;11592;45.460;9.240;2024-03-06T05:37:15;10.05;;;6.55;;
22851;SDS011;11592;45.460;9.240;2024-03-06T05:40:01;10.63;;;6.75;;
22851;SDS011;11592;45.460;9.240;2024-03-06T05:42:48;11.02;;;7.03;;
22851;SDS011;11592;45.460;9.240;2024-03-06T05:45:33;13.15;;;6.95;;
22851;SDS011;11592;45.460;9.240;2024-03-06T05:48:17;10.32;;;6.70;;
22851;SDS011;11592;45.460;9.240;2024-03-06T05:51:02;10.85;;;7.20;;
22851;SDS011;11592;45.460;9.240;2024-03-06T05:53:47;10.32;;;6.43;;
22851;SDS011;11592;45.460;9.240;2024-03-06T05:56:31;9.65;;;6.78;;
22851;SDS011;11592;45.460;9.240;2024-03-06T05:59:16;9.30;;;6.75;;
22851;SDS011;11592;45.460;9.240;2024-03-06T06:01:43;10.13;;;7.05;;
22851;SDS011;11592;45.460;9.240;2024-03-06T06:04:11;11.32;;;7.15;;
22851;SDS011;11592;45.460;9.240;2024-03-06T06:06:39;9.60;;;6.73;;
22851;SDS011;11592;45.460;9.240;2024-03-06T06:09:07;9.75;;;6.90;;
22851;SDS011;11592;45.460;9.240;2024-03-06T06:11:39;8.02;;;5.85;;
22851;SDS011;11592;45.460;9.240;2024-03-06T06:14:07;9.60;;;6.43;;
22851;SDS011;11592;45.460;9.240;2024-03-06T06:16:34;8.73;;;5.38;;
22851;SDS011;11592;45.460;9.240;2024-03-06T06:19:02;8.60;;;6.07;;
22851;SDS011;11592;45.460;9.240;2024-03-06T06:21:30;8.60;;;5.93;;
22851;SDS011;11592;45.460;9.240;2024-03-06T06:23:57;12.07;;;6.40;;
22851;SDS011;11592;45.460;9.240;2024-03-06T06:26:24;10.85;;;6.47;;
22851;SDS011;11592;45.460;9.240;2024-03-06T06:28:51;11.57;;;7.85;;
22851;SDS011;11592;45.460;9.240;2024-03-06T06:31:19;12.90;;;9.02;;
22851;SDS011;11592;45.460;9.240;2024-03-06T06:33:46;15.32;;;9.30;;
22851;SDS011;11592;45.460;9.240;2024-03-06T06:36:13;14.18;;;9.35;;
22851;SDS011;11592;45.460;9.240;2024-03-06T06:38:40;13.10;;;8.57;;
22851;SDS011;11592;45.460;9.240;2024-03-06T06:41:08;12.02;;;8.68;;
22851;SDS011;11592;45.460;9.240;2024-03-06T06:43:35;15.23;;;8.20;;
22851;SDS011;11592;45.460;9.240;2024-03-06T06:46:02;16.02;;;8.27;;
22851;SDS011;11592;45.460;9.240;2024-03-06T06:48:31;12.07;;;7.10;;
22851;SDS011;11592;45.460;9.240;2024-03-06T06:51:02;12.88;;;6.82;;
22851;SDS011;11592;45.460;9.240;2024-03-06T06:53:30;10.65;;;5.85;;
22851;SDS011;11592;45.460;9.240;2024-03-06T06:55:57;15.23;;;5.32;;
22851;SDS011;11592;45.460;9.240;2024-03-06T06:58:25;7.88;;;4.45;;
22851;SDS011;11592;45.460;9.240;2024-03-06T07:00:53;8.95;;;4.20;;
22851;SDS011;11592;45.460;9.240;2024-03-06T07:03:20;8.05;;;3.70;;
22851;SDS011;11592;45.460;9.240;2024-03-06T07:05:49;6.68;;;3.25;;
22851;SDS011;11592;45.460;9.240;2024-03-06T07:08:16;8.38;;;3.53;;
22851;SDS011;11592;45.460;9.240;2024-03-06T07:10:43;7.47;;;2.65;;
22851;SDS011;11592;45.460;9.240;2024-03-06T07:13:11;8.68;;;3.00;;
22851;SDS011;11592;45.460;9.240;2024-03-06T07:15:37;7.15;;;2.50;;
22851;SDS011;11592;45.460;9.240;2024-03-06T07:18:05;4.90;;;2.35;;
22851;SDS011;11592;45.460;9.240;2024-03-06T07:20:32;5.40;;;2.03;;
22851;SDS011;11592;45.460;9.240;2024-03-06T07:22:59;6.55;;;1.73;;
22851;SDS011;11592;45.460;9.240;2024-03-06T07:25:27;4.88;;;1.63;;
22851;SDS011;11592;45.460;9.240;2024-03-06T07:27:53;7.03;;;2.00;;
22851;SDS011;11592;45.460;9.240;2024-03-06T07:30:21;4.45;;;1.80;;
22851;SDS011;11592;45.460;9.240;2024-03-06T07:32:48;4.97;;;1.55;;
22851;SDS011;11592;45.460;9.240;2024-03-06T07:35:15;8.30;;;2.00;;
22851;SDS011;11592;45.460;9.240;2024-03-06T07:37:44;3.83;;;1.77;;
22851;SDS011;11592;45.460;9.240;2024-03-06T07:40:11;4.40;;;1.40;;
22851;SDS011;11592;45.460;9.240;2024-03-06T07:42:38;4.85;;;1.80;;
22851;SDS011;11592;45.460;9.240;2024-03-06T07:45:05;5.90;;;1.50;;
22851;SDS011;11592;45.460;9.240;2024-03-06T07:47:36;4.93;;;1.77;;
22851;SDS011;11592;45.460;9.240;2024-03-06T07:50:04;5.10;;;1.40;;
22851;SDS011;11592;45.460;9.240;2024-03-06T07:52:32;9.15;;;1.90;;
22851;SDS011;11592;45.460;9.240;2024-03-06T07:55:00;4.93;;;1.55;;
22851;SDS011;11592;45.460;9.240;2024-03-06T07:57:27;3.90;;;1.15;;
22851;SDS011;11592;45.460;9.240;2024-03-06T07:59:54;3.42;;;1.33;;
22851;SDS011;11592;45.460;9.240;2024-03-06T08:02:22;4.65;;;1.42;;
22851;SDS011;11592;45.460;9.240;2024-03-06T08:04:49;5.35;;;1.20;;
22851;SDS011;11592;45.460;9.240;2024-03-06T08:07:16;5.60;;;1.60;;
22851;SDS011;11592;45.460;9.240;2024-03-06T08:09:43;3.88;;;1.50;;
22851;SDS011;11592;45.460;9.240;2024-03-06T08:12:11;4.85;;;1.58;;
22851;SDS011;11592;45.460;9.240;2024-03-06T08:14:38;7.03;;;1.67;;
22851;SDS011;11592;45.460;9.240;2024-03-06T08:17:05;7.00;;;2.40;;
22851;SDS011;11592;45.460;9.240;2024-03-06T08:19:33;7.82;;;2.15;;
22851;SDS011;11592;45.460;9.240;2024-03-06T08:22:00;4.38;;;2.00;;
22851;SDS011;11592;45.460;9.240;2024-03-06T08:24:32;4.68;;;1.90;;
22851;SDS011;11592;45.460;9.240;2024-03-06T08:26:58;5.57;;;1.70;;
22851;SDS011;11592;45.460;9.240;2024-03-06T08:29:26;6.03;;;1.83;;
22851;SDS011;11592;45.460;9.240;2024-03-06T08:31:54;5.00;;;2.08;;
22851;SDS011;11592;45.460;9.240;2024-03-06T08:34:24;4.05;;;1.70;;
22851;SDS011;11592;45.460;9.240;2024-03-06T08:36:51;3.95;;;1.80;;
22851;SDS011;11592;45.460;9.240;2024-03-06T08:39:19;5.68;;;1.90;;
22851;SDS011;11592;45.460;9.240;2024-03-06T08:41:46;5.95;;;2.60;;
22851;SDS011;11592;45.460;9.240;2024-03-06T08:44:14;5.85;;;2.72;;
22851;SDS011;11592;45.460;9.240;2024-03-06T08:46:41;8.48;;;2.90;;
22851;SDS011;11592;45.460;9.240;2024-03-06T08:49:08;5.07;;;2.30;;
22851;SDS011;11592;45.460;9.240;2024-03-06T08:51:37;6.78;;;2.95;;
22851;SDS011;11592;45.460;9.240;2024-03-06T08:54:04;4.80;;;2.80;;
22851;SDS011;11592;45.460;9.240;2024-03-06T08:56:31;6.65;;;3.00;;
22851;SDS011;11592;45.460;9.240;2024-03-06T08:59:00;7.63;;;2.60;;
22851;SDS011;11592;45.460;9.240;2024-03-06T09:01:28;5.45;;;2.33;;
22851;SDS011;11592;45.460;9.240;2024-03-06T09:03:56;9.65;;;2.97;;
22851;SDS011;11592;45.460;9.240;2024-03-06T09:06:23;6.72;;;2.50;;
22851;SDS011;11592;45.460;9.240;2024-03-06T09:08:50;5.93;;;2.40;;
22851;SDS011;11592;45.460;9.240;2024-03-06T09:11:17;4.75;;;2.33;;
22851;SDS011;11592;45.460;9.240;2024-03-06T09:13:45;6.43;;;3.00;;
22851;SDS011;11592;45.460;9.240;2024-03-06T09:16:12;6.32;;;2.85;;
22851;SDS011;11592;45.460;9.240;2024-03-06T09:18:39;9.45;;;2.40;;
22851;SDS011;11592;45.460;9.240;2024-03-06T09:21:06;5.20;;;2.40;;
22851;SDS011;11592;45.460;9.240;2024-03-06T09:23:33;4.88;;;2.55;;
22851;SDS011;11592;45.460;9.240;2024-03-06T09:26:01;6.05;;;2.92;;
22851;SDS011;11592;45.460;9.240;2024-03-06T09:28:28;5.55;;;2.47;;
22851;SDS011;11592;45.460;9.240;2024-03-06T09:30:55;6.75;;;2.65;;
22851;SDS011;11592;45.460;9.240;2024-03-06T09:33:23;4.68;;;2.65;;
22851;SDS011;11592;45.460;9.240;2024-03-06T09:35:50;5.53;;;2.70;;
22851;SDS011;11592;45.460;9.240;2024-03-06T09:38:17;8.60;;;2.50;;
22851;SDS011;11592;45.460;9.240;2024-03-06T09:40:45;6.10;;;2.28;;
22851;SDS011;11592;45.460;9.240;2024-03-06T09:43:13;4.82;;;1.98;;
22851;SDS011;11592;45.460;9.240;2024-03-06T09:45:40;5.32;;;2.20;;
22851;SDS011;11592;45.460;9.240;2024-03-06T09:48:08;8.38;;;2.20;;
22851;SDS011;11592;45.460;9.240;2024-03-06T09:50:35;12.32;;;2.70;;
22851;SDS011;11592;45.460;9.240;2024-03-06T09:53:07;7.40;;;2.67;;
22851;SDS011;11592;45.460;9.240;2024-03-06T09:55:36;6.10;;;2.40;;
22851;SDS011;11592;45.460;9.240;2024-03-06T09:58:04;5.25;;;2.60;;
22851;SDS011;11592;45.460;9.240;2024-03-06T10:00:31;8.32;;;2.80;;
22851;SDS011;11592;45.460;9.240;2024-03-06T10:02:59;7.97;;;3.10;;
22851;SDS011;11592;45.460;9.240;2024-03-06T10:05:27;8.20;;;3.80;;
22851;SDS011;11592;45.460;9.240;2024-03-06T10:07:56;9.48;;;4.15;;
22851;SDS011;11592;45.460;9.240;2024-03-06T10:10:25;10.70;;;4.40;;
22851;SDS011;11592;45.460;9.240;2024-03-06T10:12:53;9.18;;;5.05;;
22851;SDS011;11592;45.460;9.240;2024-03-06T10:15:20;16.10;;;6.72;;
22851;SDS011;11592;45.460;9.240;2024-03-06T10:17:48;13.15;;;7.80;;
22851;SDS011;11592;45.460;9.240;2024-03-06T10:20:20;15.85;;;7.78;;
22851;SDS011;11592;45.460;9.240;2024-03-06T10:22:49;14.73;;;7.65;;
22851;SDS011;11592;45.460;9.240;2024-03-06T10:25:24;13.57;;;7.38;;
22851;SDS011;11592;45.460;9.240;2024-03-06T10:28:08;13.60;;;6.88;;
22851;SDS011;11592;45.460;9.240;2024-03-06T10:30:37;10.75;;;6.43;;
22851;SDS011;11592;45.460;9.240;2024-03-06T10:33:08;12.55;;;6.60;;
22851;SDS011;11592;45.460;9.240;2024-03-06T10:35:36;15.43;;;6.90;;
22851;SDS011;11592;45.460;9.240;2024-03-06T10:38:05;10.60;;;5.93;;
22851;SDS011;11592;45.460;9.240;2024-03-06T10:40:34;11.45;;;5.70;;
22851;SDS011;11592;45.460;9.240;2024-03-06T10:43:02;12.13;;;6.10;;
22851;SDS011;11592;45.460;9.240;2024-03-06T10:45:40;13.57;;;6.63;;
22851;SDS011;11592;45.460;9.240;2024-03-06T10:48:09;11.88;;;5.95;;
22851;SDS011;11592;45.460;9.240;2024-03-06T10:50:43;13.48;;;7.07;;
22851;SDS011;11592;45.460;9.240;2024-03-06T10:53:13;12.00;;;7.05;;
22851;SDS011;11592;45.460;9.240;2024-03-06T10:55:47;12.25;;;7.47;;
22851;SDS011;11592;45.460;9.240;2024-03-06T10:58:16;14.05;;;6.80;;
22851;SDS011;11592;45.460;9.240;2024-03-06T11:00:45;11.50;;;6.22;;
22851;SDS011;11592;45.460;9.240;2024-03-06T11:03:16;10.88;;;6.43;;
22851;SDS011;11592;45.460;9.240;2024-03-06T11:05:44;12.63;;;6.32;;
22851;SDS011;11592;45.460;9.240;2024-03-06T11:08:17;13.38;;;6.50;;
22851;SDS011;11592;45.460;9.240;2024-03-06T11:10:45;11.80;;;6.20;;
22851;SDS011;11592;45.460;9.240;2024-03-06T11:13:22;12.32;;;6.20;;
22851;SDS011;11592;45.460;9.240;2024-03-06T11:15:51;10.02;;;5.57;;
22851;SDS011;11592;45.460;9.240;2024-03-06T11:23:29;14.40;;;6.00;;
22851;SDS011;11592;45.460;9.240;2024-03-06T11:25:57;12.77;;;6.03;;
22851;SDS011;11592;45.460;9.240;2024-03-06T11:28:28;11.98;;;6.13;;
22851;SDS011;11592;45.460;9.240;2024-03-06T11:30:55;11.00;;;6.07;;
22851;SDS011;11592;45.460;9.240;2024-03-06T11:33:33;10.38;;;5.97;;
22851;SDS011;11592;45.460;9.240;2024-03-06T11:36:14;12.63;;;5.72;;
22851;SDS011;11592;45.460;9.240;2024-03-06T11:38:53;11.65;;;5.47;;
22851;SDS011;11592;45.460;9.240;2024-03-06T11:41:22;9.27;;;5.53;;
22851;SDS011;11592;45.460;9.240;2024-03-06T11:43:52;13.85;;;5.38;;
22851;SDS011;11592;45.460;9.240;2024-03-06T11:51:46;8.75;;;4.90;;
22851;SDS011;11592;45.460;9.240;2024-03-06T11:54:14;7.93;;;4.00;;
22851;SDS011;11592;45.460;9.240;2024-03-06T11:56:45;8.73;;;4.07;;
22851;SDS011;11592;45.460;9.240;2024-03-06T11:59:15;9.38;;;4.00;;
22851;SDS011;11592;45.460;9.240;2024-03-06T12:01:42;9.65;;;4.85;;
22851;SDS011;11592;45.460;9.240;2024-03-06T12:04:09;9.88;;;4.75;;
22851;SDS011;11592;45.460;9.240;2024-03-06T12:06:36;9.38;;;3.72;;
22851;SDS011;11592;45.460;9.240;2024-03-06T12:09:03;6.15;;;2.92;;
22851;SDS011;11592;45.460;9.240;2024-03-06T12:11:31;5.20;;;2.20;;
22851;SDS011;11592;45.460;9.240;2024-03-06T12:13:58;4.32;;;1.77;;
22851;SDS011;11592;45.460;9.240;2024-03-06T12:16:25;5.28;;;2.10;;
22851;SDS011;11592;45.460;9.240;2024-03-06T12:18:56;6.93;;;2.30;;
22851;SDS011;11592;45.460;9.240;2024-03-06T12:21:33;5.13;;;2.13;;
22851;SDS011;11592;45.460;9.240;2024-03-06T12:24:10;10.38;;;2.67;;
22851;SDS011;11592;45.460;9.240;2024-03-06T12:26:38;7.65;;;2.25;;
22851;SDS011;11592;45.460;9.240;2024-03-06T12:29:05;6.22;;;1.48;;
22851;SDS011;11592;45.460;9.240;2024-03-06T12:31:34;2.20;;;0.85;;
22851;SDS011;11592;45.460;9.240;2024-03-06T12:34:01;2.03;;;0.57;;
22851;SDS011;11592;45.460;9.240;2024-03-06T12:36:30;3.35;;;0.52;;
22851;SDS011;11592;45.460;9.240;2024-03-06T12:38:59;4.15;;;1.02;;
22851;SDS011;11592;45.460;9.240;2024-03-06T12:41:27;2.28;;;0.70;;
22851;SDS011;11592;45.460;9.240;2024-03-06T12:43:55;2.63;;;1.00;;
22851;SDS011;11592;45.460;9.240;2024-03-06T12:46:23;4.80;;;1.83;;
22851;SDS011;11592;45.460;9.240;2024-03-06T12:48:52;9.95;;;3.00;;
22851;SDS011;11592;45.460;9.240;2024-03-06T12:51:19;9.40;;;3.67;;
22851;SDS011;11592;45.460;9.240;2024-03-06T12:53:46;7.72;;;3.25;;
22851;SDS011;11592;45.460;9.240;2024-03-06T12:56:14;9.20;;;3.13;;
22851;SDS011;11592;45.460;9.240;2024-03-06T12:58:41;6.97;;;2.92;;
22851;SDS011;11592;45.460;9.240;2024-03-06T13:01:09;6.03;;;2.10;;
22851;SDS011;11592;45.460;9.240;2024-03-06T13:03:39;4.82;;;1.50;;
22851;SDS011;11592;45.460;9.240;2024-03-06T13:06:06;2.80;;;1.48;;
22851;SDS011;11592;45.460;9.240;2024-03-06T13:08:33;5.05;;;1.40;;
22851;SDS011;11592;45.460;9.240;2024-03-06T13:11:00;3.70;;;1.30;;
22851;SDS011;11592;45.460;9.240;2024-03-06T13:13:28;5.82;;;1.50;;
22851;SDS011;11592;45.460;9.240;2024-03-06T13:15:56;2.88;;;1.15;;
22851;SDS011;11592;45.460;9.240;2024-03-06T13:18:23;2.92;;;1.10;;
22851;SDS011;11592;45.460;9.240;2024-03-06T13:20:52;4.03;;;0.98;;
22851;SDS011;11592;45.460;9.240;2024-03-06T13:23:20;4.80;;;1.05;;
22851;SDS011;11592;45.460;9.240;2024-03-06T13:25:48;2.15;;;0.80;;
22851;SDS011;11592;45.460;9.240;2024-03-06T13:28:16;4.50;;;1.10;;
22851;SDS011;11592;45.460;9.240;2024-03-06T13:30:42;4.45;;;0.85;;
22851;SDS011;11592;45.460;9.240;2024-03-06T13:33:10;4.45;;;0.95;;
22851;SDS011;11592;45.460;9.240;2024-03-06T13:35:38;2.70;;;1.27;;
22851;SDS011;11592;45.460;9.240;2024-03-06T13:38:05;2.83;;;1.13;;
22851;SDS011;11592;45.460;9.240;2024-03-06T13:40:32;2.22;;;0.90;;
22851;SDS011;11592;45.460;9.240;2024-03-06T13:42:59;2.63;;;0.90;;
22851;SDS011;11592;45.460;9.240;2024-03-06T13:45:27;2.17;;;1.00;;
22851;SDS011;11592;45.460;9.240;2024-03-06T13:47:55;3.20;;;0.80;;
22851;SDS011;11592;45.460;9.240;2024-03-06T13:50:22;2.42;;;1.00;;
22851;SDS011;11592;45.460;9.240;2024-03-06T13:52:51;1.92;;;0.70;;
22851;SDS011;11592;45.460;9.240;2024-03-06T13:55:19;2.22;;;0.70;;
22851;SDS011;11592;45.460;9.240;2024-03-06T13:57:47;2.50;;;0.52;;
22851;SDS011;11592;45.460;9.240;2024-03-06T14:00:15;2.75;;;0.70;;
22851;SDS011;11592;45.460;9.240;2024-03-06T14:02:45;3.13;;;0.60;;
22851;SDS011;11592;45.460;9.240;2024-03-06T14:05:13;4.15;;;0.65;;
22851;SDS011;11592;45.460;9.240;2024-03-06T14:07:41;3.28;;;0.70;;
22851;SDS011;11592;45.460;9.240;2024-03-06T14:10:09;3.15;;;0.85;;
22851;SDS011;11592;45.460;9.240;2024-03-06T14:12:37;2.88;;;0.60;;
22851;SDS011;11592;45.460;9.240;2024-03-06T14:15:05;3.67;;;0.77;;
22851;SDS011;11592;45.460;9.240;2024-03-06T14:17:39;3.03;;;1.05;;
22851;SDS011;11592;45.460;9.240;2024-03-06T14:20:07;2.67;;;0.70;;
22851;SDS011;11592;45.460;9.240;2024-03-06T14:22:34;2.38;;;0.90;;
22851;SDS011;11592;45.460;9.240;2024-03-06T14:25:02;4.38;;;0.90;;
22851;SDS011;11592;45.460;9.240;2024-03-06T14:27:29;3.13;;;0.82;;
22851;SDS011;11592;45.460;9.240;2024-03-06T14:29:56;3.22;;;0.60;;
22851;SDS011;11592;45.460;9.240;2024-03-06T14:32:23;4.45;;;0.75;;
22851;SDS011;11592;45.460;9.240;2024-03-06T14:34:52;4.03;;;1.00;;
22851;SDS011;11592;45.460;9.240;2024-03-06T14:37:19;3.53;;;0.80;;
22851;SDS011;11592;45.460;9.240;2024-03-06T14:39:45;4.47;;;1.00;;
22851;SDS011;11592;45.460;9.240;2024-03-06T14:42:13;3.90;;;0.80;;
22851;SDS011;11592;45.460;9.240;2024-03-06T14:44:41;5.32;;;1.20;;
22851;SDS011;11592;45.460;9.240;2024-03-06T14:47:10;4.57;;;1.00;;
22851;SDS011;11592;45.460;9.240;2024-03-06T14:49:37;4.72;;;0.88;;
22851;SDS011;11592;45.460;9.240;2024-03-06T14:52:08;3.40;;;0.77;;
22851;SDS011;11592;45.460;9.240;2024-03-06T14:54:35;2.25;;;0.70;;
22851;SDS011;11592;45.460;9.240;2024-03-06T14:57:04;3.17;;;0.90;;
22851;SDS011;11592;45.460;9.240;2024-03-06T14:59:32;2.70;;;1.10;;
22851;SDS011;11592;45.460;9.240;2024-03-06T15:01:59;5.68;;;1.00;;
22851;SDS011;11592;45.460;9.240;2024-03-06T15:04:27;4.22;;;0.88;;
22851;SDS011;11592;45.460;9.240;2024-03-06T15:06:54;2.63;;;0.80;;
22851;SDS011;11592;45.460;9.240;2024-03-06T15:09:22;2.78;;;0.90;;